createdAt,value
2016-12-06T00:00:23.668Z,0
2016-12-06T00:01:23.448Z,0
2016-12-06T00:02:23.615Z,0
2016-12-06T00:03:23.331Z,0
2016-12-06T00:04:23.435Z,0
2016-12-06T00:05:23.176Z,0
2016-12-06T00:06:23.430Z,0
2016-12-06T00:07:23.837Z,0
2016-12-06T00:08:22.779Z,0
2016-12-06T00:09:23.284Z,0
2016-12-06T00:10:23.445Z,0
2016-12-06T00:11:23.567Z,0
2016-12-06T00:12:24.155Z,0
2016-12-06T00:13:23.162Z,0
2016-12-06T00:14:24.507Z,0
2016-12-06T00:15:23.860Z,0
2016-12-06T00:16:23.441Z,0
2016-12-06T00:17:23.927Z,0
2016-12-06T00:18:23.493Z,0
2016-12-06T00:19:23.522Z,0
2016-12-06T00:20:23.910Z,0
2016-12-06T00:21:23.862Z,0
2016-12-06T00:22:23.012Z,0
2016-12-06T00:23:23.292Z,0
2016-12-06T00:24:23.148Z,0
2016-12-06T00:25:23.451Z,0
2016-12-06T00:26:23.204Z,0
2016-12-06T00:27:22.796Z,0
2016-12-06T00:28:23.543Z,0
2016-12-06T00:29:23.334Z,0
2016-12-06T00:30:23.121Z,0
2016-12-06T00:31:24.107Z,0
2016-12-06T00:32:23.708Z,0
2016-12-06T00:33:23.728Z,0
2016-12-06T00:34:23.080Z,0
2016-12-06T00:35:24.235Z,0
2016-12-06T00:36:23.550Z,0
2016-12-06T00:37:24.622Z,0
2016-12-06T00:38:24.067Z,0
2016-12-06T00:39:23.685Z,0
2016-12-06T00:40:23.574Z,0
2016-12-06T00:41:24.241Z,0
2016-12-06T00:42:23.481Z,0
2016-12-06T00:43:23.265Z,0
2016-12-06T00:44:23.212Z,0
2016-12-06T00:45:24.196Z,0
2016-12-06T00:46:23.232Z,0
2016-12-06T00:47:24.214Z,0
2016-12-06T00:48:23.800Z,0
2016-12-06T00:49:24.219Z,0
2016-12-06T00:50:24.150Z,0
2016-12-06T00:51:23.947Z,0
2016-12-06T00:52:23.725Z,0
2016-12-06T00:53:23.778Z,0
2016-12-06T00:54:24.479Z,0
2016-12-06T00:55:24.123Z,0
2016-12-06T00:56:24.131Z,0
2016-12-06T00:57:23.673Z,0
2016-12-06T00:58:23.885Z,0
2016-12-06T00:59:23.679Z,0
2016-12-06T01:00:23.675Z,0
2016-12-06T01:01:24.407Z,0
2016-12-06T01:02:25.198Z,0
2016-12-06T01:03:24.576Z,0
2016-12-06T01:04:24.310Z,0
2016-12-06T01:05:23.810Z,0
2016-12-06T01:06:23.578Z,0
2016-12-06T01:07:23.724Z,0
2016-12-06T01:08:24.493Z,0
2016-12-06T01:09:24.635Z,0
2016-12-06T01:10:23.505Z,0
2016-12-06T01:11:23.882Z,0
2016-12-06T01:12:23.757Z,0
2016-12-06T01:13:24.362Z,0
2016-12-06T01:14:24.149Z,0
2016-12-06T01:15:24.235Z,0
2016-12-06T01:16:24.301Z,0
2016-12-06T01:17:24.612Z,0
2016-12-06T01:18:24.879Z,0
2016-12-06T01:19:23.809Z,0
2016-12-06T01:20:23.461Z,0
2016-12-06T01:21:24.175Z,0
2016-12-06T01:22:24.427Z,0
2016-12-06T01:23:23.935Z,0
2016-12-06T01:24:24.288Z,0
2016-12-06T01:25:23.755Z,0
2016-12-06T01:26:24.008Z,0
2016-12-06T01:27:23.917Z,0
2016-12-06T01:28:23.447Z,0
2016-12-06T01:29:24.523Z,0
2016-12-06T01:30:24.576Z,0
2016-12-06T01:31:23.848Z,0
2016-12-06T01:32:24.235Z,0
2016-12-06T01:33:23.713Z,0
2016-12-06T01:34:24.222Z,0
2016-12-06T01:35:24.221Z,0
2016-12-06T01:36:24.787Z,0
2016-12-06T01:37:23.879Z,0
2016-12-06T01:38:25.141Z,0
2016-12-06T01:39:23.883Z,0
2016-12-06T01:40:24.199Z,0
2016-12-06T01:41:24.346Z,0
2016-12-06T01:42:23.938Z,0
2016-12-06T01:43:24.590Z,0
2016-12-06T01:44:24.089Z,0
2016-12-06T01:45:25.271Z,0
2016-12-06T01:46:24.925Z,0
2016-12-06T01:47:24.749Z,0
2016-12-06T01:48:23.939Z,0
2016-12-06T01:49:24.941Z,0
2016-12-06T01:50:24.255Z,0
2016-12-06T01:51:23.986Z,0
2016-12-06T01:52:24.779Z,0
2016-12-06T01:53:24.511Z,0
2016-12-06T01:54:24.622Z,0
2016-12-06T01:55:24.237Z,0
2016-12-06T01:56:24.501Z,0
2016-12-06T01:57:24.511Z,0
2016-12-06T01:58:24.824Z,0
2016-12-06T01:59:24.430Z,0
2016-12-06T02:00:25.752Z,0
2016-12-06T02:01:24.761Z,0
2016-12-06T02:02:25.438Z,0
2016-12-06T02:03:25.052Z,0
2016-12-06T02:04:24.090Z,0
2016-12-06T02:05:24.350Z,0
2016-12-06T02:06:24.058Z,0
2016-12-06T02:07:24.804Z,0
2016-12-06T02:08:24.646Z,0
2016-12-06T02:09:24.594Z,0
2016-12-06T02:10:24.319Z,0
2016-12-06T02:11:24.909Z,0
2016-12-06T02:12:24.402Z,0
2016-12-06T02:13:24.411Z,0
2016-12-06T02:14:24.400Z,0
2016-12-06T02:15:24.660Z,0
2016-12-06T02:16:24.735Z,0
2016-12-06T02:17:24.177Z,0
2016-12-06T02:18:24.748Z,0
2016-12-06T02:19:24.844Z,0
2016-12-06T02:20:24.617Z,0
2016-12-06T02:21:24.811Z,0
2016-12-06T02:22:25.353Z,0
2016-12-06T02:23:24.784Z,0
2016-12-06T02:24:24.883Z,0
2016-12-06T02:25:25.002Z,0
2016-12-06T02:26:25.763Z,0
2016-12-06T02:27:24.869Z,0
2016-12-06T02:28:25.427Z,0
2016-12-06T02:29:24.849Z,0
2016-12-06T02:30:24.108Z,0
2016-12-06T02:31:24.604Z,0
2016-12-06T02:32:24.868Z,0
2016-12-06T02:33:24.678Z,0
2016-12-06T02:34:25.257Z,0
2016-12-06T02:35:25.007Z,0
2016-12-06T02:36:24.646Z,0
2016-12-06T02:37:24.577Z,0
2016-12-06T02:38:25.755Z,0
2016-12-06T02:39:24.768Z,0
2016-12-06T02:40:24.543Z,0
2016-12-06T02:41:24.749Z,0
2016-12-06T02:42:24.750Z,0
2016-12-06T02:43:24.779Z,0
2016-12-06T02:44:25.165Z,0
2016-12-06T02:45:25.146Z,0
2016-12-06T02:46:24.741Z,0
2016-12-06T02:47:24.488Z,0
2016-12-06T02:48:24.937Z,0
2016-12-06T02:49:24.673Z,0
2016-12-06T02:50:25.115Z,0
2016-12-06T02:51:25.439Z,0
2016-12-06T02:52:24.804Z,0
2016-12-06T02:53:25.217Z,0
2016-12-06T02:54:24.728Z,0
2016-12-06T02:55:24.932Z,0
2016-12-06T02:56:25.387Z,0
2016-12-06T02:57:24.734Z,0
2016-12-06T02:58:25.011Z,0
2016-12-06T02:59:24.756Z,0
2016-12-06T03:00:24.863Z,0
2016-12-06T03:01:25.128Z,0
2016-12-06T03:02:24.955Z,0
2016-12-06T03:03:25.122Z,0
2016-12-06T03:04:26.102Z,0
2016-12-06T03:05:24.973Z,0
2016-12-06T03:06:25.097Z,0
2016-12-06T03:07:25.454Z,0
2016-12-06T03:08:24.623Z,0
2016-12-06T03:09:24.784Z,0
2016-12-06T03:10:25.661Z,0
2016-12-06T03:11:24.517Z,0
2016-12-06T03:12:25.549Z,0
2016-12-06T03:13:25.258Z,0
2016-12-06T03:14:25.208Z,0
2016-12-06T03:15:25.263Z,0
2016-12-06T03:16:24.741Z,0
2016-12-06T03:17:25.057Z,0
2016-12-06T03:18:25.098Z,0
2016-12-06T03:19:25.319Z,0
2016-12-06T03:20:24.650Z,0
2016-12-06T03:21:26.119Z,0
2016-12-06T03:22:24.991Z,0
2016-12-06T03:23:25.367Z,0
2016-12-06T03:24:24.838Z,0
2016-12-06T03:25:25.562Z,0
2016-12-06T03:26:25.642Z,0
2016-12-06T03:27:25.743Z,0
2016-12-06T03:28:25.398Z,0
2016-12-06T03:29:24.839Z,0
2016-12-06T03:30:25.284Z,0
2016-12-06T03:31:25.399Z,0
2016-12-06T03:32:25.135Z,0
2016-12-06T03:33:24.837Z,0
2016-12-06T03:34:24.840Z,0
2016-12-06T03:35:26.323Z,0
2016-12-06T03:36:25.216Z,0
2016-12-06T03:37:25.718Z,0
2016-12-06T03:38:24.980Z,0
2016-12-06T03:39:25.959Z,0
2016-12-06T03:40:25.258Z,0
2016-12-06T03:41:25.527Z,0
2016-12-06T03:42:25.618Z,0
2016-12-06T03:43:25.713Z,0
2016-12-06T03:44:25.250Z,0
2016-12-06T03:45:25.689Z,0
2016-12-06T03:46:25.612Z,0
2016-12-06T03:47:26.431Z,0
2016-12-06T03:48:26.041Z,0
2016-12-06T03:49:25.857Z,0
2016-12-06T03:50:25.563Z,0
2016-12-06T03:51:25.028Z,0
2016-12-06T03:52:24.983Z,0
2016-12-06T03:53:25.725Z,0
2016-12-06T03:54:25.162Z,0
2016-12-06T03:55:25.077Z,0
2016-12-06T03:56:25.549Z,0
2016-12-06T03:57:26.003Z,0
2016-12-06T03:58:26.656Z,0
2016-12-06T03:59:25.375Z,0
2016-12-06T04:00:25.545Z,0
2016-12-06T04:01:26.087Z,0
2016-12-06T04:02:25.073Z,0
2016-12-06T04:03:25.644Z,0
2016-12-06T04:04:25.495Z,0
2016-12-06T04:05:25.770Z,0
2016-12-06T04:06:25.510Z,0
2016-12-06T04:07:26.046Z,0
2016-12-06T04:08:25.293Z,0
2016-12-06T04:09:26.199Z,0
2016-12-06T04:10:25.655Z,0
2016-12-06T04:11:25.854Z,0
2016-12-06T04:12:26.037Z,0
2016-12-06T04:13:26.215Z,0
2016-12-06T04:14:25.744Z,0
2016-12-06T04:15:25.790Z,0
2016-12-06T04:16:25.742Z,0
2016-12-06T04:17:25.805Z,0
2016-12-06T04:18:26.062Z,0
2016-12-06T04:19:25.681Z,0
2016-12-06T04:20:25.845Z,0
2016-12-06T04:21:25.337Z,0
2016-12-06T04:22:25.809Z,0
2016-12-06T04:23:26.185Z,0
2016-12-06T04:24:26.264Z,0
2016-12-06T04:25:25.169Z,0
2016-12-06T04:26:26.037Z,0
2016-12-06T04:27:25.277Z,0
2016-12-06T04:28:25.101Z,0
2016-12-06T04:29:25.558Z,0
2016-12-06T04:30:25.418Z,0
2016-12-06T04:31:26.094Z,0
2016-12-06T04:32:26.590Z,0
2016-12-06T04:33:25.713Z,0
2016-12-06T04:34:26.564Z,0
2016-12-06T04:35:26.176Z,0
2016-12-06T04:36:27.089Z,0
2016-12-06T04:37:25.698Z,0
2016-12-06T04:38:26.899Z,0
2016-12-06T04:39:25.790Z,0
2016-12-06T04:40:25.769Z,0
2016-12-06T04:41:26.595Z,0
2016-12-06T04:42:26.105Z,0
2016-12-06T04:43:25.962Z,0
2016-12-06T04:44:25.379Z,0
2016-12-06T04:45:25.613Z,0
2016-12-06T04:46:25.640Z,0
2016-12-06T04:47:25.532Z,0
2016-12-06T04:48:25.915Z,0
2016-12-06T04:49:26.415Z,0
2016-12-06T04:50:25.843Z,0
2016-12-06T04:51:25.934Z,0
2016-12-06T04:52:25.762Z,0
2016-12-06T04:53:25.534Z,0
2016-12-06T04:54:26.043Z,0
2016-12-06T04:55:25.684Z,0
2016-12-06T04:56:26.499Z,0
2016-12-06T04:57:26.888Z,0
2016-12-06T04:58:26.892Z,0
2016-12-06T04:59:26.485Z,0
2016-12-06T05:00:26.299Z,0
2016-12-06T05:01:27.107Z,0
2016-12-06T05:02:26.227Z,0
2016-12-06T05:03:26.134Z,0
2016-12-06T05:04:25.471Z,0
2016-12-06T05:05:27.003Z,0
2016-12-06T05:06:26.941Z,0
2016-12-06T05:07:27.135Z,0
2016-12-06T05:08:26.155Z,0
2016-12-06T05:09:26.534Z,0
2016-12-06T05:10:26.808Z,0
2016-12-06T05:11:27.376Z,0
2016-12-06T05:12:27.052Z,0
2016-12-06T05:13:27.313Z,0
2016-12-06T05:14:27.326Z,0
2016-12-06T05:15:26.674Z,0
2016-12-06T05:16:26.542Z,0
2016-12-06T05:17:27.511Z,0
2016-12-06T05:18:27.421Z,0
2016-12-06T05:19:27.179Z,0
2016-12-06T05:20:26.814Z,0
2016-12-06T05:21:27.304Z,0
2016-12-06T05:22:27.330Z,0
2016-12-06T05:23:26.983Z,0
2016-12-06T05:24:26.742Z,0
2016-12-06T05:25:27.654Z,0
2016-12-06T05:26:26.795Z,0
2016-12-06T05:27:27.114Z,0
2016-12-06T05:28:26.795Z,0
2016-12-06T05:29:27.151Z,0
2016-12-06T05:30:26.662Z,0
2016-12-06T05:31:27.066Z,0
2016-12-06T05:32:26.365Z,0
2016-12-06T05:33:28.109Z,0
2016-12-06T05:34:26.646Z,0
2016-12-06T05:35:27.491Z,0
2016-12-06T05:36:26.985Z,0
2016-12-06T05:37:26.766Z,0
2016-12-06T05:38:27.219Z,0
2016-12-06T05:39:27.463Z,0
2016-12-06T05:40:26.962Z,0
2016-12-06T05:41:26.891Z,0
2016-12-06T05:42:27.871Z,0
2016-12-06T05:43:27.114Z,0
2016-12-06T05:44:27.884Z,0
2016-12-06T05:45:27.880Z,0
2016-12-06T05:46:28.628Z,0
2016-12-06T05:47:27.045Z,0
2016-12-06T05:48:26.983Z,0
2016-12-06T05:49:26.757Z,0
2016-12-06T05:50:27.471Z,0
2016-12-06T05:51:26.747Z,0
2016-12-06T05:52:27.669Z,0
2016-12-06T05:53:28.035Z,0
2016-12-06T05:54:27.390Z,0
2016-12-06T05:55:27.437Z,0
2016-12-06T05:56:27.870Z,0
2016-12-06T05:57:28.007Z,0
2016-12-06T05:58:26.766Z,0
2016-12-06T05:59:28.812Z,0
2016-12-06T06:00:28.099Z,0
2016-12-06T06:01:28.089Z,0
2016-12-06T06:02:27.366Z,0
2016-12-06T06:03:28.096Z,0
2016-12-06T06:04:28.827Z,0
2016-12-06T06:05:27.451Z,0
2016-12-06T06:06:27.532Z,0
2016-12-06T06:07:27.697Z,0
2016-12-06T06:08:27.751Z,0
2016-12-06T06:09:27.453Z,0
2016-12-06T06:10:27.128Z,0
2016-12-06T06:11:26.763Z,0
2016-12-06T06:12:54.085Z,0
2016-12-06T06:13:27.822Z,0
2016-12-06T06:14:26.835Z,0
2016-12-06T06:15:27.020Z,0
2016-12-06T06:16:28.082Z,0
2016-12-06T06:17:27.849Z,0
2016-12-06T06:18:27.692Z,0
2016-12-06T06:19:27.590Z,0
2016-12-06T06:20:28.336Z,0
2016-12-06T06:21:27.651Z,0
2016-12-06T06:22:27.809Z,0
2016-12-06T06:23:27.815Z,0
2016-12-06T06:24:28.355Z,0
2016-12-06T06:25:27.571Z,0
2016-12-06T06:26:29.064Z,0
2016-12-06T06:27:27.987Z,0
2016-12-06T06:28:27.168Z,0
2016-12-06T06:29:27.624Z,0
2016-12-06T06:30:29.605Z,0
2016-12-06T06:31:27.236Z,0
2016-12-06T06:32:28.168Z,0
2016-12-06T06:33:28.889Z,0
2016-12-06T06:34:30.929Z,0
2016-12-06T06:35:26.872Z,0
2016-12-06T06:36:28.873Z,0
2016-12-06T06:37:28.676Z,0
2016-12-06T06:38:29.422Z,0
2016-12-06T06:39:28.612Z,4
2016-12-06T06:40:28.195Z,4
2016-12-06T06:41:27.569Z,0
2016-12-06T06:42:27.806Z,0
2016-12-06T06:43:27.444Z,4
2016-12-06T06:44:29.008Z,4
2016-12-06T06:45:27.801Z,0
2016-12-06T06:46:27.759Z,4
2016-12-06T06:47:27.913Z,4
2016-12-06T06:48:28.227Z,4
2016-12-06T06:49:27.449Z,4
2016-12-06T06:50:28.345Z,8
2016-12-06T06:51:27.938Z,8
2016-12-06T06:52:27.300Z,8
2016-12-06T06:53:29.041Z,12
2016-12-06T06:54:29.216Z,12
2016-12-06T06:55:29.951Z,16
2016-12-06T06:56:28.181Z,16
2016-12-06T06:57:27.253Z,20
2016-12-06T06:58:27.972Z,28
2016-12-06T06:59:26.833Z,32
2016-12-06T07:00:27.460Z,36
2016-12-06T07:01:27.537Z,40
2016-12-06T07:02:27.670Z,44
2016-12-06T07:03:27.905Z,48
2016-12-06T07:04:27.864Z,52
2016-12-06T07:05:28.227Z,60
2016-12-06T07:06:28.244Z,68
2016-12-06T07:07:28.551Z,76
2016-12-06T07:08:27.748Z,84
2016-12-06T07:09:28.301Z,88
2016-12-06T07:10:29.117Z,100
2016-12-06T07:11:27.464Z,104
2016-12-06T07:12:28.560Z,112
2016-12-06T07:13:29.272Z,120
2016-12-06T07:14:27.559Z,128
2016-12-06T07:15:28.210Z,144
2016-12-06T07:16:27.299Z,160
2016-12-06T07:17:27.958Z,156
2016-12-06T07:18:28.225Z,168
2016-12-06T07:19:28.106Z,172
2016-12-06T07:20:28.716Z,184
2016-12-06T07:22:28.067Z,180
2016-12-06T07:23:27.253Z,188
2016-12-06T07:24:29.410Z,208
2016-12-06T07:25:28.508Z,224
2016-12-06T07:26:28.143Z,248
2016-12-06T07:27:28.934Z,268
2016-12-06T07:28:29.073Z,276
2016-12-06T07:29:28.112Z,288
2016-12-06T07:30:28.026Z,304
2016-12-06T07:31:34.708Z,332
2016-12-06T07:32:28.106Z,360
2016-12-06T07:33:28.061Z,380
2016-12-06T07:34:28.864Z,388
2016-12-06T07:35:29.256Z,416
2016-12-06T07:36:28.306Z,448
2016-12-06T07:37:28.142Z,472
2016-12-06T07:38:27.638Z,500
2016-12-06T07:39:28.811Z,528
2016-12-06T07:40:28.309Z,544
2016-12-06T07:41:28.522Z,588
2016-12-06T07:42:27.577Z,612
2016-12-06T07:43:28.009Z,620
2016-12-06T07:44:28.292Z,652
2016-12-06T07:45:27.780Z,660
2016-12-06T07:46:28.308Z,664
2016-12-06T07:47:27.935Z,708
2016-12-06T07:48:27.419Z,724
2016-12-06T07:49:28.948Z,696
2016-12-06T07:50:27.617Z,656
2016-12-06T07:51:27.925Z,680
2016-12-06T07:52:28.091Z,732
2016-12-06T07:53:27.843Z,752
2016-12-06T07:54:28.132Z,780
2016-12-06T07:55:27.758Z,792
2016-12-06T07:56:27.884Z,800
2016-12-06T07:57:27.827Z,824
2016-12-06T07:58:27.812Z,804
2016-12-06T07:59:28.598Z,864
2016-12-06T08:00:28.796Z,856
2016-12-06T08:01:28.704Z,916
2016-12-06T08:02:28.404Z,948
2016-12-06T08:03:28.100Z,896
2016-12-06T08:04:27.655Z,796
2016-12-06T08:05:27.942Z,760
2016-12-06T08:06:27.941Z,772
2016-12-06T08:07:28.988Z,856
2016-12-06T08:08:28.168Z,984
2016-12-06T08:09:29.448Z,1084
2016-12-06T08:10:28.023Z,1080
2016-12-06T08:11:28.618Z,1100
2016-12-06T08:12:28.403Z,1124
2016-12-06T08:13:28.386Z,1072
2016-12-06T08:14:28.249Z,900
2016-12-06T08:15:28.183Z,832
2016-12-06T08:16:27.632Z,860
2016-12-06T08:17:28.295Z,908
2016-12-06T08:18:27.747Z,1052
2016-12-06T08:19:28.217Z,1228
2016-12-06T08:20:27.974Z,1260
2016-12-06T08:21:28.419Z,1288
2016-12-06T08:22:28.955Z,1312
2016-12-06T08:23:28.889Z,1276
2016-12-06T08:24:28.506Z,1408
2016-12-06T08:25:28.294Z,1396
2016-12-06T08:26:28.042Z,1388
2016-12-06T08:27:28.166Z,1344
2016-12-06T08:28:28.124Z,1316
2016-12-06T08:29:28.392Z,1364
2016-12-06T08:30:28.272Z,1364
2016-12-06T08:31:28.598Z,1304
2016-12-06T08:32:28.497Z,1316
2016-12-06T08:33:28.632Z,1328
2016-12-06T08:34:28.885Z,1368
2016-12-06T08:35:27.753Z,1456
2016-12-06T08:36:28.793Z,1432
2016-12-06T08:37:28.663Z,1468
2016-12-06T08:38:29.456Z,1544
2016-12-06T08:39:28.079Z,1708
2016-12-06T08:40:28.666Z,1692
2016-12-06T08:41:29.209Z,1532
2016-12-06T08:42:28.093Z,1580
2016-12-06T08:43:28.197Z,1592
2016-12-06T08:44:28.427Z,1624
2016-12-06T08:45:29.990Z,1612
2016-12-06T08:46:28.326Z,1720
2016-12-06T08:47:28.071Z,1744
2016-12-06T08:48:28.719Z,1680
2016-12-06T08:49:28.309Z,1720
2016-12-06T08:50:28.575Z,1812
2016-12-06T08:51:29.112Z,1844
2016-12-06T08:52:28.525Z,1956
2016-12-06T08:53:28.155Z,2012
2016-12-06T08:54:29.284Z,1992
2016-12-06T08:55:29.856Z,2008
2016-12-06T08:56:29.519Z,1996
2016-12-06T08:57:28.343Z,2048
2016-12-06T08:58:28.352Z,2016
2016-12-06T08:59:28.882Z,1968
2016-12-06T09:00:28.750Z,2140
2016-12-06T09:01:29.239Z,2108
2016-12-06T09:02:29.409Z,2012
2016-12-06T09:03:28.581Z,1972
2016-12-06T09:04:28.645Z,1824
2016-12-06T09:05:28.438Z,1788
2016-12-06T09:06:28.884Z,1852
2016-12-06T09:07:28.138Z,2040
2016-12-06T09:08:29.534Z,2064
2016-12-06T09:09:28.955Z,2288
2016-12-06T09:10:28.565Z,2368
2016-12-06T09:11:29.385Z,2316
2016-12-06T09:12:29.560Z,2332
2016-12-06T09:13:29.705Z,2216
2016-12-06T09:14:29.353Z,2316
2016-12-06T09:15:28.689Z,2528
2016-12-06T09:16:28.499Z,2480
2016-12-06T09:17:29.032Z,2296
2016-12-06T09:18:29.675Z,2252
2016-12-06T09:19:29.710Z,2392
2016-12-06T09:20:29.614Z,2504
2016-12-06T09:21:29.616Z,2460
2016-12-06T09:22:28.902Z,2384
2016-12-06T09:23:28.657Z,2440
2016-12-06T09:24:29.141Z,2480
2016-12-06T09:25:29.036Z,2536
2016-12-06T09:26:29.336Z,2552
2016-12-06T09:27:28.947Z,2532
2016-12-06T09:28:29.415Z,2524
2016-12-06T09:29:29.028Z,2688
2016-12-06T09:30:29.207Z,2668
2016-12-06T09:31:29.619Z,2592
2016-12-06T09:32:29.194Z,2684
2016-12-06T09:33:29.271Z,2784
2016-12-06T09:34:29.029Z,2676
2016-12-06T09:35:29.222Z,2652
2016-12-06T09:36:29.507Z,2876
2016-12-06T09:37:29.249Z,2788
2016-12-06T09:38:28.738Z,2624
2016-12-06T09:39:29.300Z,2576
2016-12-06T09:40:29.409Z,2916
2016-12-06T09:41:29.358Z,2852
2016-12-06T09:42:29.858Z,2840
2016-12-06T09:43:28.415Z,3084
2016-12-06T09:44:29.340Z,3196
2016-12-06T09:45:29.473Z,3004
2016-12-06T09:46:29.691Z,2904
2016-12-06T09:47:29.191Z,2828
2016-12-06T09:48:29.702Z,3108
2016-12-06T09:49:29.382Z,3260
2016-12-06T09:50:29.575Z,3108
2016-12-06T09:51:28.572Z,2964
2016-12-06T09:52:29.017Z,2976
2016-12-06T09:53:29.829Z,3116
2016-12-06T09:54:29.035Z,3076
2016-12-06T09:55:29.025Z,2992
2016-12-06T09:56:29.797Z,3088
2016-12-06T09:57:29.727Z,2964
2016-12-06T09:58:29.046Z,2900
2016-12-06T09:59:29.045Z,2888
2016-12-06T10:00:29.632Z,2880
2016-12-06T10:01:29.442Z,2976
2016-12-06T10:02:29.881Z,3112
2016-12-06T10:03:29.693Z,3352
2016-12-06T10:04:29.242Z,3372
2016-12-06T10:05:29.842Z,3200
2016-12-06T10:06:29.351Z,2984
2016-12-06T10:07:29.189Z,2888
2016-12-06T10:08:29.208Z,2904
2016-12-06T10:09:29.705Z,2848
2016-12-06T10:10:30.133Z,2764
2016-12-06T10:11:29.123Z,2860
2016-12-06T10:12:29.680Z,2860
2016-12-06T10:13:29.118Z,2952
2016-12-06T10:14:29.832Z,3104
2016-12-06T10:15:29.379Z,3048
2016-12-06T10:16:28.945Z,3016
2016-12-06T10:17:30.094Z,2924
2016-12-06T10:18:30.036Z,3032
2016-12-06T10:19:29.346Z,3268
2016-12-06T10:20:28.954Z,3372
2016-12-06T10:21:29.257Z,3392
2016-12-06T10:22:29.876Z,3432
2016-12-06T10:23:30.541Z,3480
2016-12-06T10:24:30.238Z,3364
2016-12-06T10:25:29.527Z,3284
2016-12-06T10:26:30.422Z,3200
2016-12-06T10:27:29.724Z,3276
2016-12-06T10:28:29.969Z,3412
2016-12-06T10:29:30.234Z,3464
2016-12-06T10:30:29.551Z,3648
2016-12-06T10:31:29.751Z,3676
2016-12-06T10:32:29.374Z,3584
2016-12-06T10:33:29.899Z,3636
2016-12-06T10:34:29.880Z,3612
2016-12-06T10:35:30.473Z,3572
2016-12-06T10:36:30.851Z,3656
2016-12-06T10:37:29.828Z,3716
2016-12-06T10:38:30.576Z,3692
2016-12-06T10:39:29.880Z,3792
2016-12-06T10:40:30.433Z,3872
2016-12-06T10:41:30.046Z,3904
2016-12-06T10:42:29.613Z,3892
2016-12-06T10:43:30.624Z,3860
2016-12-06T10:44:29.907Z,3848
2016-12-06T10:45:30.469Z,4016
2016-12-06T10:46:30.081Z,3984
2016-12-06T10:47:29.562Z,3904
2016-12-06T10:48:30.729Z,3820
2016-12-06T10:49:30.287Z,3856
2016-12-06T10:50:29.658Z,4088
2016-12-06T10:51:30.797Z,4072
2016-12-06T10:52:29.663Z,3988
2016-12-06T10:53:29.808Z,4068
2016-12-06T10:54:29.767Z,3956
2016-12-06T10:55:30.346Z,4012
2016-12-06T10:56:30.039Z,3996
2016-12-06T10:57:30.047Z,3996
2016-12-06T10:58:31.378Z,3976
2016-12-06T10:59:30.866Z,3892
2016-12-06T11:00:30.924Z,3996
2016-12-06T11:01:29.744Z,4104
2016-12-06T11:02:29.906Z,4260
2016-12-06T11:03:30.382Z,4236
2016-12-06T11:04:30.578Z,3980
2016-12-06T11:05:29.880Z,3864
2016-12-06T11:06:31.880Z,3840
2016-12-06T11:07:30.366Z,3788
2016-12-06T11:08:30.421Z,3864
2016-12-06T11:09:31.108Z,3864
2016-12-06T11:10:30.326Z,3896
2016-12-06T11:11:30.286Z,3756
2016-12-06T11:12:30.011Z,3684
2016-12-06T11:13:29.751Z,3612
2016-12-06T11:14:29.627Z,3692
2016-12-06T11:15:30.455Z,3624
2016-12-06T11:16:30.334Z,3584
2016-12-06T11:17:30.857Z,3696
2016-12-06T11:18:30.404Z,3868
2016-12-06T11:19:30.346Z,3904
2016-12-06T11:20:30.207Z,3980
2016-12-06T11:21:30.798Z,3956
2016-12-06T11:22:30.326Z,3940
2016-12-06T11:23:29.751Z,3944
2016-12-06T11:24:29.897Z,4056
2016-12-06T11:25:30.719Z,4228
2016-12-06T11:26:30.600Z,4252
2016-12-06T11:27:30.173Z,4288
2016-12-06T11:28:30.476Z,4440
2016-12-06T11:29:30.836Z,4452
2016-12-06T11:30:30.332Z,4412
2016-12-06T11:31:30.091Z,4468
2016-12-06T11:32:29.904Z,4600
2016-12-06T11:33:30.845Z,4412
2016-12-06T11:34:30.816Z,4104
2016-12-06T11:35:30.789Z,3968
2016-12-06T11:36:30.551Z,3928
2016-12-06T11:37:30.034Z,3948
2016-12-06T11:38:30.381Z,3884
2016-12-06T11:39:30.251Z,3556
2016-12-06T11:40:30.690Z,3412
2016-12-06T11:41:30.374Z,3476
2016-12-06T11:42:30.380Z,3556
2016-12-06T11:43:29.933Z,3524
2016-12-06T11:44:30.649Z,3432
2016-12-06T11:45:30.674Z,3432
2016-12-06T11:46:30.160Z,3380
2016-12-06T11:47:30.068Z,3488
2016-12-06T11:48:32.860Z,3532
2016-12-06T11:49:30.216Z,3528
2016-12-06T11:50:31.182Z,3464
2016-12-06T11:51:30.767Z,3468
2016-12-06T11:52:30.692Z,3632
2016-12-06T11:53:30.768Z,3904
2016-12-06T11:54:30.940Z,4192
2016-12-06T11:55:30.143Z,4220
2016-12-06T11:56:30.148Z,4056
2016-12-06T11:57:30.300Z,3924
2016-12-06T11:58:30.721Z,3844
2016-12-06T11:59:31.105Z,3764
2016-12-06T12:00:30.996Z,3628
2016-12-06T12:01:30.586Z,3632
2016-12-06T12:02:30.956Z,3820
2016-12-06T12:03:30.571Z,3900
2016-12-06T12:04:30.784Z,3936
2016-12-06T12:05:31.574Z,4012
2016-12-06T12:06:30.953Z,4060
2016-12-06T12:07:31.084Z,3872
2016-12-06T12:08:30.924Z,3852
2016-12-06T12:09:30.864Z,3964
2016-12-06T12:10:30.959Z,3936
2016-12-06T12:11:30.999Z,3864
2016-12-06T12:12:30.840Z,3864
2016-12-06T12:13:31.216Z,3932
2016-12-06T12:14:31.178Z,4308
2016-12-06T12:15:30.926Z,4404
2016-12-06T12:16:31.082Z,4476
2016-12-06T12:17:31.779Z,4492
2016-12-06T12:18:31.791Z,4476
2016-12-06T12:19:31.410Z,4492
2016-12-06T12:20:30.719Z,4136
2016-12-06T12:21:31.084Z,3844
2016-12-06T12:22:31.260Z,3572
2016-12-06T12:23:30.857Z,3496
2016-12-06T12:24:30.788Z,3524
2016-12-06T12:25:30.931Z,3640
2016-12-06T12:26:31.384Z,3692
2016-12-06T12:27:31.665Z,3604
2016-12-06T12:28:30.923Z,3532
2016-12-06T12:29:30.488Z,3472
2016-12-06T12:30:30.674Z,3432
2016-12-06T12:31:30.665Z,3548
2016-12-06T12:32:30.445Z,3688
2016-12-06T12:33:30.773Z,3860
2016-12-06T12:34:31.267Z,3996
2016-12-06T12:35:30.645Z,4076
2016-12-06T12:36:31.030Z,3928
2016-12-06T12:37:31.674Z,3840
2016-12-06T12:38:31.703Z,3612
2016-12-06T12:39:30.892Z,3532
2016-12-06T12:40:31.313Z,3632
2016-12-06T12:41:30.926Z,3600
2016-12-06T12:42:31.287Z,3792
2016-12-06T12:43:30.722Z,4104
2016-12-06T12:44:30.738Z,4284
2016-12-06T12:45:32.495Z,4356
2016-12-06T12:46:31.315Z,4204
2016-12-06T12:47:31.183Z,3992
2016-12-06T12:48:31.296Z,3908
2016-12-06T12:49:32.188Z,3768
2016-12-06T12:50:31.970Z,3724
2016-12-06T12:51:31.877Z,3684
2016-12-06T12:52:30.926Z,3624
2016-12-06T12:53:30.839Z,3680
2016-12-06T12:54:31.930Z,3612
2016-12-06T12:55:31.245Z,3532
2016-12-06T12:56:31.292Z,3516
2016-12-06T12:57:31.216Z,3440
2016-12-06T12:58:32.014Z,3332
2016-12-06T12:59:30.968Z,3192
2016-12-06T13:00:31.059Z,3068
2016-12-06T13:01:31.611Z,3048
2016-12-06T13:02:31.018Z,3000
2016-12-06T13:03:31.515Z,2960
2016-12-06T13:04:30.887Z,2796
2016-12-06T13:05:32.101Z,2736
2016-12-06T13:06:31.587Z,2684
2016-12-06T13:07:32.064Z,2660
2016-12-06T13:08:31.618Z,2668
2016-12-06T13:09:31.924Z,2684
2016-12-06T13:10:31.843Z,2720
2016-12-06T13:11:31.322Z,2720
2016-12-06T13:12:31.567Z,2680
2016-12-06T13:13:31.210Z,2692
2016-12-06T13:14:32.222Z,2612
2016-12-06T13:15:31.306Z,2588
2016-12-06T13:16:32.620Z,2540
2016-12-06T13:17:31.535Z,2452
2016-12-06T13:18:31.536Z,2452
2016-12-06T13:19:31.884Z,2452
2016-12-06T13:20:32.776Z,2412
2016-12-06T13:21:31.293Z,2412
2016-12-06T13:22:32.278Z,2400
2016-12-06T13:23:32.130Z,2364
2016-12-06T13:24:32.055Z,2344
2016-12-06T13:25:32.156Z,2344
2016-12-06T13:26:31.150Z,2288
2016-12-06T13:27:31.457Z,2276
2016-12-06T13:28:31.558Z,2268
2016-12-06T13:29:32.268Z,2232
2016-12-06T13:30:32.550Z,2240
2016-12-06T13:31:31.969Z,2268
2016-12-06T13:32:31.288Z,2312
2016-12-06T13:33:31.222Z,2316
2016-12-06T13:34:31.437Z,2280
2016-12-06T13:35:32.155Z,2280
2016-12-06T13:36:32.115Z,2296
2016-12-06T13:37:31.561Z,2316
2016-12-06T13:38:31.674Z,2252
2016-12-06T13:39:31.887Z,2224
2016-12-06T13:40:31.994Z,2244
2016-12-06T13:41:32.197Z,2176
2016-12-06T13:42:33.027Z,2116
2016-12-06T13:43:31.362Z,2140
2016-12-06T13:44:31.664Z,2136
2016-12-06T13:45:32.117Z,2100
2016-12-06T13:46:31.273Z,2124
2016-12-06T13:47:31.990Z,2148
2016-12-06T13:48:32.167Z,2156
2016-12-06T13:49:31.608Z,2116
2016-12-06T13:50:32.211Z,2040
2016-12-06T13:51:32.040Z,2032
2016-12-06T13:52:32.003Z,1988
2016-12-06T13:53:32.181Z,1940
2016-12-06T13:54:31.725Z,1968
2016-12-06T13:55:32.140Z,1964
2016-12-06T13:56:32.577Z,1976
2016-12-06T13:57:32.669Z,1964
2016-12-06T13:58:32.072Z,2012
2016-12-06T13:59:32.493Z,2028
2016-12-06T14:00:32.428Z,2000
2016-12-06T14:01:32.011Z,1956
2016-12-06T14:02:32.075Z,1884
2016-12-06T14:03:32.175Z,1804